createdAt,value
2022-10-02T00:01:48.456Z,0.40
2022-10-02T00:04:38.379Z,0.70
2022-10-02T00:07:10.307Z,0.30
2022-10-02T00:09:45.212Z,0.55
2022-10-02T00:12:17.324Z,0.45
2022-10-02T00:14:47.468Z,0.82
2022-10-02T00:17:20.157Z,0.50
2022-10-02T00:19:46.778Z,0.40
2022-10-02T00:22:27.429Z,0.60
2022-10-02T00:25:06.019Z,0.28
2022-10-02T00:27:37.774Z,0.28
2022-10-02T00:30:06.014Z,0.30
2022-10-02T00:32:45.678Z,0.30
2022-10-02T00:35:36.478Z,0.30
2022-10-02T00:38:25.093Z,0.28
2022-10-02T00:40:55.720Z,0.30
2022-10-02T00:43:32.873Z,0.65
2022-10-02T00:46:06.988Z,0.40
2022-10-02T00:48:57.553Z,0.40
2022-10-02T00:52:00.556Z,0.40
2022-10-02T00:54:52.921Z,0.30
2022-10-02T00:57:37.726Z,0.22
2022-10-02T01:00:10.881Z,1.33
2022-10-02T01:02:59.481Z,0.30
2022-10-02T01:05:27.345Z,0.43
2022-10-02T01:07:55.891Z,0.40
2022-10-02T01:10:25.586Z,0.45
2022-10-02T01:12:54.513Z,0.40
2022-10-02T01:15:24.244Z,0.25
2022-10-02T01:17:52.354Z,0.30
2022-10-02T01:20:31.155Z,0.22
2022-10-02T01:23:09.002Z,0.50
2022-10-02T01:25:35.823Z,0.20
2022-10-02T01:28:02.666Z,0.40
2022-10-02T01:30:31.843Z,0.55
2022-10-02T01:33:02.075Z,0.60
2022-10-02T01:35:31.970Z,0.32
2022-10-02T01:38:02.312Z,0.30
2022-10-02T01:40:32.908Z,0.45
2022-10-02T01:43:07.703Z,0.35
2022-10-02T01:45:55.922Z,0.40
2022-10-02T01:48:47.518Z,0.40
2022-10-02T01:51:44.694Z,0.47
2022-10-02T01:54:24.601Z,0.32
2022-10-02T01:56:55.803Z,0.98
2022-10-02T01:59:44.304Z,0.50
2022-10-02T02:02:43.193Z,0.80
2022-10-02T02:05:22.011Z,0.40
2022-10-02T02:07:58.647Z,0.50
2022-10-02T02:10:39.712Z,0.82
2022-10-02T02:13:14.789Z,0.47
2022-10-02T02:15:48.139Z,0.40
2022-10-02T02:18:28.471Z,0.53
2022-10-02T02:21:10.343Z,0.80
2022-10-02T02:23:41.437Z,0.80
2022-10-02T02:26:12.543Z,0.60
2022-10-02T02:28:45.437Z,0.50
2022-10-02T02:31:16.016Z,0.73
2022-10-02T02:33:47.416Z,0.70
2022-10-02T02:36:19.694Z,0.80
2022-10-02T02:38:50.738Z,0.90
2022-10-02T02:41:24.843Z,0.90
2022-10-02T02:43:57.678Z,0.73
2022-10-02T02:46:56.216Z,1.17
2022-10-02T02:49:25.299Z,0.70
2022-10-02T02:51:54.483Z,0.80
2022-10-02T02:54:26.337Z,1.08
2022-10-02T02:56:55.539Z,1.00
2022-10-02T02:59:26.247Z,1.20
2022-10-02T03:01:53.979Z,0.68
2022-10-02T03:04:20.646Z,1.15
2022-10-02T03:06:51.578Z,0.70
2022-10-02T03:09:22.282Z,0.80
2022-10-02T03:12:19.770Z,0.80
2022-10-02T03:15:00.535Z,0.77
2022-10-02T03:17:52.905Z,0.70
2022-10-02T03:20:34.730Z,0.70
2022-10-02T03:23:17.116Z,1.13
2022-10-02T03:25:59.410Z,0.80
2022-10-02T03:28:53.573Z,0.70
2022-10-02T03:31:19.332Z,1.10
2022-10-02T03:33:46.629Z,1.08
2022-10-02T03:36:16.331Z,0.60
2022-10-02T03:38:43.679Z,0.70
2022-10-02T03:41:10.267Z,0.80
2022-10-02T03:43:37.734Z,1.35
2022-10-02T03:46:04.338Z,0.60
2022-10-02T03:48:30.951Z,0.50
2022-10-02T03:50:58.948Z,0.60
2022-10-02T03:53:32.004Z,0.50
2022-10-02T03:56:04.354Z,0.57
2022-10-02T03:58:33.206Z,0.45
2022-10-02T04:01:03.424Z,0.80
2022-10-02T04:03:35.882Z,0.40
2022-10-02T04:06:09.892Z,0.95
2022-10-02T04:08:43.741Z,0.60
2022-10-02T04:11:28.227Z,0.55
2022-10-02T04:14:02.740Z,0.53
2022-10-02T04:16:40.734Z,0.45
2022-10-02T04:19:22.511Z,0.77
2022-10-02T04:21:59.753Z,0.55
2022-10-02T04:24:32.018Z,0.60
2022-10-02T04:27:11.483Z,0.40
2022-10-02T04:29:45.498Z,1.35
2022-10-02T04:32:15.537Z,0.77
2022-10-02T04:34:42.532Z,0.60
2022-10-02T04:37:32.109Z,0.50
2022-10-02T04:40:26.187Z,0.40
2022-10-02T04:43:20.873Z,0.60
2022-10-02T04:46:00.458Z,0.60
2022-10-02T04:48:48.130Z,0.43
2022-10-02T04:51:36.544Z,0.40
2022-10-02T04:54:28.993Z,0.50
2022-10-02T04:57:03.435Z,0.40
2022-10-02T04:59:57.756Z,0.60
2022-10-02T05:02:40.607Z,0.50
2022-10-02T05:05:13.199Z,0.40
2022-10-02T05:08:00.317Z,0.60
2022-10-02T05:10:52.806Z,0.80
2022-10-02T05:13:32.656Z,0.60
2022-10-02T05:16:17.430Z,0.60
2022-10-02T05:19:00.398Z,0.85
2022-10-02T05:21:58.187Z,0.60
2022-10-02T05:24:36.723Z,0.60
2022-10-02T05:27:15.709Z,1.10
2022-10-02T05:30:06.956Z,0.50
2022-10-02T05:32:51.589Z,0.50
2022-10-02T05:35:52.229Z,0.60
2022-10-02T05:38:31.941Z,0.50
2022-10-02T05:41:03.717Z,0.77
2022-10-02T05:43:42.478Z,0.50
2022-10-02T05:46:16.413Z,0.47
2022-10-02T05:48:52.922Z,0.40
2022-10-02T05:51:30.564Z,0.60
2022-10-02T05:54:03.421Z,0.80
2022-10-02T05:56:38.855Z,0.80
2022-10-02T05:59:18.564Z,0.47
2022-10-02T06:01:49.833Z,0.60
2022-10-02T06:04:19.616Z,0.32
2022-10-02T06:06:47.201Z,0.50
2022-10-02T06:09:20.029Z,0.43
2022-10-02T06:11:55.898Z,0.40
2022-10-02T06:14:33.710Z,0.40
2022-10-02T06:17:03.770Z,0.60
2022-10-02T06:19:38.947Z,0.40
2022-10-02T06:22:13.448Z,0.40
2022-10-02T06:24:47.437Z,0.30
2022-10-02T06:27:53.903Z,0.20
2022-10-02T06:30:22.135Z,0.40
2022-10-02T06:33:22.895Z,0.30
2022-10-02T06:36:09.498Z,0.40
2022-10-02T06:38:45.178Z,0.35
2022-10-02T06:41:29.558Z,0.47
2022-10-02T06:44:17.003Z,0.50
2022-10-02T06:47:01.400Z,0.50
2022-10-02T06:49:46.536Z,0.60
2022-10-02T06:52:33.313Z,0.60
2022-10-02T06:55:27.851Z,0.77
2022-10-02T06:58:25.558Z,0.60
2022-10-02T07:01:03.010Z,0.70
2022-10-02T07:03:40.990Z,0.70
2022-10-02T07:06:21.984Z,0.50
2022-10-02T07:08:57.780Z,0.90
2022-10-02T07:11:55.275Z,0.52
2022-10-02T07:14:28.067Z,0.50
2022-10-02T07:17:11.062Z,0.85
2022-10-02T07:19:59.321Z,0.80
2022-10-02T07:22:45.648Z,0.93
2022-10-02T07:25:17.624Z,0.88
2022-10-02T07:28:06.167Z,0.52
2022-10-02T07:30:46.250Z,0.65
2022-10-02T07:33:37.640Z,0.43
2022-10-02T07:36:16.704Z,0.80
2022-10-02T07:39:05.861Z,1.30
2022-10-02T07:41:47.476Z,1.02
2022-10-02T07:44:16.058Z,1.30
2022-10-02T07:46:57.458Z,0.77
2022-10-02T07:49:37.647Z,0.70
2022-10-02T07:52:22.777Z,0.50
2022-10-02T07:54:55.170Z,0.60
2022-10-02T07:57:33.152Z,0.77
2022-10-02T08:00:06.633Z,0.68
2022-10-02T08:02:44.239Z,1.00
2022-10-02T08:05:21.075Z,0.95
2022-10-02T08:07:51.187Z,0.73
2022-10-02T08:10:22.787Z,0.63
2022-10-02T08:12:57.890Z,0.70
2022-10-02T08:15:25.336Z,0.83
2022-10-02T08:18:07.049Z,0.80
2022-10-02T08:20:46.719Z,0.93
2022-10-02T08:23:31.357Z,0.63
2022-10-02T08:26:06.911Z,0.60
2022-10-02T08:28:56.914Z,0.73
2022-10-02T08:31:25.245Z,0.47
2022-10-02T08:33:52.002Z,1.00
2022-10-02T08:36:23.180Z,0.60
2022-10-02T08:39:08.400Z,0.70
2022-10-02T08:41:36.860Z,0.57
2022-10-02T08:44:13.387Z,0.90
2022-10-02T08:46:40.887Z,0.80
2022-10-02T08:49:40.346Z,0.50
2022-10-02T08:52:15.937Z,0.60
2022-10-02T08:55:05.875Z,0.53
2022-10-02T08:57:43.494Z,0.50
2022-10-02T09:00:38.157Z,0.93
2022-10-02T09:03:56.725Z,1.02
2022-10-02T09:06:25.357Z,0.70
2022-10-02T09:09:42.130Z,0.63
2022-10-02T09:12:40.389Z,0.52
2022-10-02T09:15:16.697Z,0.57
2022-10-02T09:17:46.437Z,0.50
2022-10-02T09:20:40.519Z,0.90
2022-10-02T09:23:47.586Z,0.77
2022-10-02T09:26:25.786Z,1.15
2022-10-02T09:29:08.188Z,0.77
2022-10-02T09:32:04.086Z,0.50
2022-10-02T09:34:59.089Z,0.70
2022-10-02T09:54:42.309Z,0.70
2022-10-02T09:57:42.043Z,0.38
2022-10-02T10:07:14.612Z,0.50
2022-10-02T10:17:00.262Z,0.60
2022-10-02T10:26:52.300Z,0.30
2022-10-02T10:40:25.018Z,0.20
2022-10-02T10:43:19.190Z,0.50
2022-10-02T10:46:08.591Z,0.68
2022-10-02T10:48:47.129Z,0.50
2022-10-02T10:51:31.515Z,0.88
2022-10-02T10:54:22.684Z,0.40
2022-10-02T10:56:59.083Z,0.30
2022-10-02T10:59:42.500Z,0.80
2022-10-02T11:02:15.053Z,0.40
2022-10-02T11:04:41.540Z,0.73
2022-10-02T11:07:22.564Z,0.40
2022-10-02T11:10:08.973Z,0.32
2022-10-02T11:13:04.512Z,0.50
2022-10-02T11:15:32.146Z,0.45
2022-10-02T11:18:35.399Z,0.40
2022-10-02T11:21:10.598Z,0.70
2022-10-02T11:24:01.946Z,0.77
2022-10-02T11:26:44.981Z,0.40
2022-10-02T11:29:11.440Z,0.98
2022-10-02T11:32:02.380Z,0.70
2022-10-02T11:35:00.617Z,0.93
2022-10-02T11:37:41.541Z,0.55
2022-10-02T11:40:22.077Z,0.50
2022-10-02T11:43:02.627Z,0.57
2022-10-02T11:45:43.684Z,0.52
2022-10-02T11:48:25.146Z,0.57
2022-10-02T11:51:24.622Z,0.70
2022-10-02T11:53:55.094Z,0.40
2022-10-02T11:56:52.126Z,0.47
2022-10-02T11:59:49.493Z,0.52
2022-10-02T12:02:32.706Z,0.67
2022-10-02T12:05:18.795Z,0.43
2022-10-02T12:07:59.452Z,0.50
2022-10-02T12:10:37.633Z,1.33
2022-10-02T12:13:24.727Z,0.30
2022-10-02T12:16:04.887Z,0.30
2022-10-02T12:18:50.933Z,0.30
2022-10-02T12:21:45.504Z,0.30
2022-10-02T12:24:34.619Z,2.10
2022-10-02T12:27:19.826Z,0.32
2022-10-02T12:30:01.929Z,0.83
2022-10-02T12:32:39.092Z,0.40
2022-10-02T12:35:22.812Z,0.63
2022-10-02T12:38:02.535Z,0.52
2022-10-02T12:40:37.321Z,0.30
2022-10-02T12:43:17.537Z,0.30
2022-10-02T12:46:04.490Z,0.55
2022-10-02T12:48:39.482Z,0.45
2022-10-02T12:51:12.905Z,0.40
2022-10-02T12:54:24.671Z,0.38
2022-10-02T12:57:02.156Z,0.40
2022-10-02T12:59:51.333Z,0.40
2022-10-02T13:02:59.920Z,0.40
2022-10-02T13:05:50.749Z,0.28
2022-10-02T13:08:35.369Z,0.40
2022-10-02T13:11:09.225Z,0.50
2022-10-02T13:13:57.523Z,0.47
2022-10-02T13:16:56.260Z,0.65
2022-10-02T13:19:31.554Z,0.43
2022-10-02T13:22:11.727Z,0.25
2022-10-02T13:24:50.004Z,0.30
2022-10-02T13:27:31.711Z,0.45
2022-10-02T13:30:06.168Z,0.43
2022-10-02T13:32:45.855Z,0.30
2022-10-02T13:35:25.577Z,0.55
2022-10-02T13:37:58.467Z,0.47
2022-10-02T13:40:32.389Z,0.40
2022-10-02T13:43:40.697Z,0.45
2022-10-02T13:46:14.428Z,0.90
2022-10-02T13:49:03.504Z,0.35
2022-10-02T13:51:45.678Z,0.43
2022-10-02T13:54:22.872Z,0.60
2022-10-02T13:57:06.352Z,0.35
2022-10-02T14:00:01.072Z,0.40
2022-10-02T14:02:50.719Z,0.43
2022-10-02T14:05:34.902Z,0.40
2022-10-02T14:08:17.564Z,0.38
2022-10-02T14:11:06.078Z,0.60
2022-10-02T14:14:01.155Z,0.30
2022-10-02T14:16:54.974Z,0.40
2022-10-02T14:19:31.973Z,0.30
2022-10-02T14:22:19.455Z,1.05
2022-10-02T14:25:01.021Z,0.40
2022-10-02T14:27:31.510Z,0.30
2022-10-02T14:30:07.280Z,0.30
2022-10-02T14:32:54.066Z,0.20
2022-10-02T14:35:40.612Z,0.38
2022-10-02T14:38:31.551Z,0.57
2022-10-02T14:41:09.726Z,0.55
2022-10-02T14:43:43.411Z,0.40
2022-10-02T14:46:10.974Z,0.33
2022-10-02T14:48:56.638Z,0.57
2022-10-02T14:51:24.094Z,0.60
2022-10-02T14:54:09.336Z,0.57
2022-10-02T14:56:43.157Z,0.60
2022-10-02T14:59:11.715Z,1.00
2022-10-02T15:01:45.966Z,0.60
2022-10-02T15:04:23.978Z,1.10
2022-10-02T15:07:03.906Z,0.40
2022-10-02T15:09:41.328Z,0.73
2022-10-02T15:12:15.306Z,0.40
2022-10-02T15:15:02.599Z,0.60
2022-10-02T15:17:53.874Z,0.68
2022-10-02T15:20:36.252Z,1.02
2022-10-02T15:23:26.484Z,0.43
2022-10-02T15:26:45.986Z,0.33
2022-10-02T15:29:43.185Z,0.30
2022-10-02T15:32:20.231Z,0.50
2022-10-02T15:35:24.981Z,0.30
2022-10-02T15:37:58.635Z,0.60
2022-10-02T15:40:31.000Z,0.60
2022-10-02T15:43:24.402Z,0.30
2022-10-02T15:46:07.576Z,0.52
2022-10-02T15:48:35.258Z,0.40
2022-10-02T15:51:07.802Z,0.30
2022-10-02T15:53:35.317Z,0.47
2022-10-02T15:56:27.126Z,0.50
2022-10-02T15:59:22.535Z,0.50
2022-10-02T16:02:05.065Z,1.00
2022-10-02T16:04:50.399Z,0.60
2022-10-02T16:07:46.649Z,0.67
2022-10-02T16:10:26.139Z,0.73
2022-10-02T16:13:25.205Z,0.60
2022-10-02T16:15:53.138Z,0.50
2022-10-02T16:18:37.664Z,0.50
2022-10-02T16:21:06.355Z,0.60
2022-10-02T16:23:56.016Z,0.63
2022-10-02T16:26:43.167Z,0.35
2022-10-02T16:29:30.565Z,0.60
2022-10-02T16:32:26.604Z,0.70
2022-10-02T16:35:16.627Z,0.70
2022-10-02T16:37:55.445Z,0.57
2022-10-02T16:40:43.549Z,0.50
2022-10-02T16:43:23.511Z,0.60
2022-10-02T16:45:55.291Z,0.60
2022-10-02T16:48:27.851Z,0.60
2022-10-02T16:51:09.617Z,0.63
2022-10-02T16:53:44.736Z,0.75
2022-10-02T16:56:19.242Z,0.40
2022-10-02T16:58:50.744Z,0.50
2022-10-02T17:01:34.473Z,0.87
2022-10-02T17:04:13.115Z,0.50
2022-10-02T17:06:49.789Z,0.40
2022-10-02T17:09:44.156Z,0.75
2022-10-02T17:12:21.930Z,1.73
2022-10-02T17:15:14.395Z,1.87
2022-10-02T17:18:11.193Z,1.38
2022-10-02T17:20:50.396Z,1.70
2022-10-02T17:23:27.706Z,1.67
2022-10-02T17:26:03.789Z,1.67
2022-10-02T17:28:40.754Z,1.33
2022-10-02T17:31:08.460Z,1.35
2022-10-02T17:33:52.270Z,1.30
2022-10-02T17:36:36.983Z,1.08
2022-10-02T17:39:17.688Z,1.20
2022-10-02T17:41:55.710Z,1.37
2022-10-02T17:44:27.001Z,1.52
2022-10-02T17:46:54.863Z,1.15
2022-10-02T17:49:24.425Z,1.38
2022-10-02T17:52:37.522Z,1.48
2022-10-02T17:55:41.386Z,1.03
2022-10-02T17:58:31.911Z,1.10
2022-10-02T18:01:30.659Z,1.13
2022-10-02T18:04:15.374Z,1.20
2022-10-02T18:07:01.611Z,1.00
2022-10-02T18:09:38.214Z,0.90
2022-10-02T18:12:27.930Z,0.93
2022-10-02T18:15:09.588Z,1.30
2022-10-02T18:17:46.120Z,1.10
2022-10-02T18:20:32.986Z,1.02
2022-10-02T18:23:17.002Z,0.97
2022-10-02T18:26:14.343Z,0.90
2022-10-02T18:29:16.851Z,1.50
2022-10-02T18:31:57.843Z,1.10
2022-10-02T18:34:43.625Z,1.10
2022-10-02T18:37:24.522Z,1.17
2022-10-02T18:40:10.291Z,1.20
2022-10-02T18:42:42.460Z,1.73
2022-10-02T18:45:29.169Z,1.70
2022-10-02T18:48:19.526Z,1.60
2022-10-02T18:50:53.397Z,1.50
2022-10-02T18:53:30.922Z,1.08
2022-10-02T18:56:04.524Z,1.30
2022-10-02T18:58:54.946Z,1.58
2022-10-02T19:01:49.840Z,1.55
2022-10-02T19:04:37.984Z,1.90
2022-10-02T19:07:13.726Z,1.50
2022-10-02T19:09:42.047Z,1.63
2022-10-02T19:12:23.817Z,1.80
2022-10-02T19:14:57.430Z,1.88
2022-10-02T19:17:24.060Z,1.50
2022-10-02T19:19:50.611Z,1.90
2022-10-02T19:22:51.671Z,1.60
2022-10-02T19:25:20.473Z,1.90
2022-10-02T19:27:55.650Z,1.40
2022-10-02T19:30:27.715Z,1.33
2022-10-02T19:32:59.726Z,1.50
2022-10-02T19:35:33.673Z,1.63
2022-10-02T19:38:12.722Z,0.90
2022-10-02T19:40:40.192Z,1.42
2022-10-02T19:43:24.641Z,0.90
2022-10-02T19:45:54.034Z,0.88
2022-10-02T19:48:20.804Z,0.80
2022-10-02T19:50:51.685Z,1.23
2022-10-02T19:53:24.378Z,1.27
2022-10-02T19:55:56.713Z,0.80
2022-10-02T19:58:32.707Z,0.90
2022-10-02T20:01:00.099Z,0.90
2022-10-02T20:03:27.605Z,1.00
2022-10-02T20:05:59.928Z,0.82
2022-10-02T20:08:31.604Z,0.97
2022-10-02T20:11:05.480Z,0.80
2022-10-02T20:13:42.016Z,0.80
2022-10-02T20:16:42.806Z,0.80
2022-10-02T20:19:26.389Z,1.35
2022-10-02T20:22:00.184Z,1.17
2022-10-02T20:24:33.392Z,0.80
2022-10-02T20:27:06.443Z,1.05
2022-10-02T20:29:46.608Z,0.80
2022-10-02T20:32:22.407Z,1.00
2022-10-02T20:34:56.417Z,0.97
2022-10-02T20:37:29.524Z,1.35
2022-10-02T20:40:05.822Z,1.73
2022-10-02T20:42:40.984Z,1.38
2022-10-02T20:45:13.797Z,1.55
2022-10-02T20:48:00.309Z,0.77
2022-10-02T20:50:32.941Z,1.27
2022-10-02T20:53:01.686Z,1.10
2022-10-02T20:55:49.869Z,1.10
2022-10-02T20:58:50.258Z,1.40
2022-10-02T21:01:20.072Z,0.80
2022-10-02T21:04:08.155Z,0.73
2022-10-02T21:06:51.416Z,0.38
2022-10-02T21:09:42.501Z,0.40
2022-10-02T21:12:41.299Z,0.47
2022-10-02T21:15:18.019Z,0.40
2022-10-02T21:18:04.773Z,0.95
2022-10-02T21:20:50.982Z,0.47
2022-10-02T21:23:45.194Z,0.40
2022-10-02T21:26:37.300Z,0.30
2022-10-02T21:29:18.434Z,0.30
2022-10-02T21:31:58.605Z,0.73
2022-10-02T21:34:31.076Z,0.38
2022-10-02T21:37:07.343Z,0.50
2022-10-02T21:40:13.549Z,0.30
2022-10-02T21:43:17.308Z,0.30
2022-10-02T21:45:48.042Z,0.40
2022-10-02T21:48:35.986Z,0.30
2022-10-02T21:51:50.074Z,0.50
2022-10-02T21:54:29.919Z,0.28
2022-10-02T21:57:07.538Z,0.20
2022-10-02T22:00:09.211Z,0.38
2022-10-02T22:03:11.541Z,0.50
2022-10-02T22:06:05.493Z,0.50
2022-10-02T22:08:38.956Z,0.30
2022-10-02T22:11:19.341Z,0.20
2022-10-02T22:13:49.197Z,0.20
2022-10-02T22:16:30.530Z,0.25
2022-10-02T22:19:03.379Z,0.30
2022-10-02T22:21:30.872Z,0.30
2022-10-02T22:24:16.155Z,0.20
2022-10-02T22:27:00.714Z,0.30
2022-10-02T22:29:27.197Z,0.40
2022-10-02T22:31:54.779Z,0.40
2022-10-02T22:34:41.157Z,0.30
2022-10-02T22:37:45.196Z,0.40
2022-10-02T22:40:21.034Z,0.30
2022-10-02T22:43:02.735Z,0.22
2022-10-02T22:45:42.109Z,0.40
2022-10-02T22:48:17.608Z,0.30
2022-10-02T22:50:58.187Z,0.37
2022-10-02T22:53:33.427Z,0.30
2022-10-02T22:56:00.180Z,0.35
2022-10-02T22:58:39.434Z,0.43
2022-10-02T23:01:16.228Z,0.28
2022-10-02T23:03:46.841Z,0.20
2022-10-02T23:06:16.518Z,0.40
2022-10-02T23:08:49.470Z,0.57
2022-10-02T23:11:44.266Z,0.20
2022-10-02T23:14:14.938Z,0.22
2022-10-02T23:16:49.399Z,0.30
2022-10-02T23:19:25.078Z,0.22
2022-10-02T23:22:07.398Z,0.20
2022-10-02T23:24:43.618Z,0.20
2022-10-02T23:27:26.753Z,0.28
2022-10-02T23:30:02.498Z,0.63
2022-10-02T23:32:52.847Z,0.40
2022-10-02T23:35:28.716Z,0.40
2022-10-02T23:38:02.509Z,0.30
2022-10-02T23:40:51.491Z,0.40
2022-10-02T23:43:27.854Z,0.43
2022-10-02T23:46:03.849Z,0.35
2022-10-02T23:48:32.470Z,0.30
2022-10-02T23:51:25.722Z,0.20
2022-10-02T23:54:11.923Z,0.20
2022-10-02T23:57:07.734Z,0.20
